createdAt,value
2023-05-10T00:01:26.131Z,63.33
2023-05-10T00:03:54.261Z,63.43
2023-05-10T00:06:22.454Z,64.35
2023-05-10T00:08:50.574Z,64.03
2023-05-10T00:11:19.617Z,64.16
2023-05-10T00:13:48.820Z,64.15
2023-05-10T00:16:18.211Z,64.07
2023-05-10T00:18:46.190Z,63.21
2023-05-10T00:21:14.246Z,65.06
2023-05-10T00:23:42.460Z,66.01
2023-05-10T00:26:10.424Z,66.15
2023-05-10T00:28:38.511Z,67.03
2023-05-10T00:31:06.609Z,67.22
2023-05-10T00:33:35.915Z,67.75
2023-05-10T00:36:03.952Z,68.71
2023-05-10T00:38:32.066Z,68.77
2023-05-10T00:41:00.195Z,69.06
2023-05-10T00:43:28.272Z,68.27
2023-05-10T00:45:56.859Z,68.24
2023-05-10T00:48:25.200Z,68.11
2023-05-10T00:50:54.709Z,67.69
2023-05-10T00:53:23.111Z,68.05
2023-05-10T00:55:52.030Z,68.45
2023-05-10T00:58:20.300Z,68.74
2023-05-10T01:00:49.435Z,68.45
2023-05-10T01:03:18.263Z,69.30
2023-05-10T01:05:46.328Z,69.68
2023-05-10T01:08:15.983Z,70.74
2023-05-10T01:10:45.101Z,70.72
2023-05-10T01:13:14.425Z,69.13
2023-05-10T01:15:43.065Z,67.85
2023-05-10T01:18:11.570Z,70.75
2023-05-10T01:20:49.977Z,71.36
2023-05-10T01:23:45.913Z,70.95
2023-05-10T01:26:31.538Z,71.39
2023-05-10T01:29:20.970Z,70.34
2023-05-10T01:32:22.853Z,71.36
2023-05-10T01:35:01.644Z,71.77
2023-05-10T01:37:38.869Z,71.96
2023-05-10T01:40:15.649Z,71.71
2023-05-10T01:42:52.281Z,72.55
2023-05-10T01:45:27.314Z,71.69
2023-05-10T01:48:04.544Z,74.24
2023-05-10T01:50:34.484Z,73.70
2023-05-10T01:53:04.562Z,75.45
2023-05-10T01:55:36.937Z,73.01
2023-05-10T01:58:08.927Z,74.79
2023-05-10T02:00:38.793Z,71.68
2023-05-10T02:03:10.820Z,72.18
2023-05-10T02:05:39.739Z,72.27
2023-05-10T02:08:09.000Z,75.15
2023-05-10T02:10:37.764Z,76.39
2023-05-10T02:13:08.269Z,72.39
2023-05-10T02:15:38.136Z,76.43
2023-05-10T02:18:07.808Z,74.53
2023-05-10T02:20:37.411Z,76.43
2023-05-10T02:23:06.623Z,75.96
2023-05-10T02:25:35.573Z,75.52
2023-05-10T02:28:05.923Z,74.86
2023-05-10T02:30:35.899Z,76.92
2023-05-10T02:33:06.269Z,76.69
2023-05-10T02:35:34.788Z,76.05
2023-05-10T02:38:04.913Z,78.24
2023-05-10T02:40:34.710Z,75.91
2023-05-10T02:43:04.805Z,76.50
2023-05-10T02:45:34.390Z,74.96
2023-05-10T02:48:02.723Z,71.86
2023-05-10T02:50:32.844Z,76.33
2023-05-10T02:53:08.716Z,76.49
2023-05-10T02:55:42.709Z,76.89
2023-05-10T02:58:11.155Z,75.57
2023-05-10T03:00:39.219Z,73.32
2023-05-10T03:03:07.978Z,73.92
2023-05-10T03:05:36.098Z,71.24
2023-05-10T03:08:07.170Z,72.38
2023-05-10T03:10:39.588Z,72.34
2023-05-10T03:13:15.126Z,71.16
2023-05-10T03:15:52.956Z,72.37
2023-05-10T03:18:25.343Z,71.18
2023-05-10T03:20:59.924Z,70.85
2023-05-10T03:23:36.303Z,69.82
2023-05-10T03:26:06.913Z,70.38
2023-05-10T03:28:36.330Z,71.07
2023-05-10T03:31:06.605Z,70.41
2023-05-10T03:33:34.695Z,67.36
2023-05-10T03:36:02.648Z,66.74
2023-05-10T03:38:32.055Z,66.07
2023-05-10T03:41:00.151Z,67.89
2023-05-10T03:43:29.794Z,65.47
2023-05-10T03:45:57.808Z,67.25
2023-05-10T03:48:26.051Z,67.41
2023-05-10T03:50:53.915Z,65.41
2023-05-10T03:53:22.096Z,65.98
2023-05-10T03:55:54.463Z,64.33
2023-05-10T03:58:22.969Z,66.51
2023-05-10T04:00:50.960Z,65.17
2023-05-10T04:03:22.169Z,64.19
2023-05-10T04:05:50.461Z,62.07
2023-05-10T04:08:18.468Z,63.51
2023-05-10T04:10:46.481Z,61.37
2023-05-10T04:13:16.153Z,61.23
2023-05-10T04:15:44.739Z,61.45
2023-05-10T04:18:13.117Z,61.85
2023-05-10T04:20:41.125Z,59.76
2023-05-10T04:23:09.043Z,59.88
2023-05-10T04:25:38.338Z,59.21
2023-05-10T04:28:06.530Z,58.51
2023-05-10T04:30:35.917Z,58.75
2023-05-10T04:33:04.053Z,57.41
2023-05-10T04:35:32.057Z,57.07
2023-05-10T04:37:59.967Z,56.78
2023-05-10T04:40:28.365Z,57.24
2023-05-10T04:42:56.462Z,56.28
2023-05-10T04:45:24.556Z,55.02
2023-05-10T04:47:54.164Z,55.53
2023-05-10T04:50:22.104Z,54.79
2023-05-10T04:52:50.093Z,55.16
2023-05-10T04:55:18.414Z,54.08
2023-05-10T04:57:46.656Z,53.69
2023-05-10T05:00:15.777Z,53.92
2023-05-10T05:02:48.382Z,52.58
2023-05-10T05:05:18.013Z,52.89
2023-05-10T05:07:47.883Z,52.21
2023-05-10T05:10:16.497Z,51.38
2023-05-10T05:12:44.760Z,50.19
2023-05-10T05:15:13.292Z,47.46
2023-05-10T05:17:41.384Z,47.40
2023-05-10T05:20:10.344Z,45.90
2023-05-10T05:22:39.945Z,44.45
2023-05-10T05:25:08.875Z,44.38
2023-05-10T05:27:36.861Z,45.23
2023-05-10T05:30:05.465Z,45.10
2023-05-10T05:32:36.536Z,45.47
2023-05-10T05:35:04.828Z,45.10
2023-05-10T05:37:32.785Z,45.86
2023-05-10T05:40:03.116Z,45.95
2023-05-10T05:42:30.873Z,46.79
2023-05-10T05:44:58.877Z,46.26
2023-05-10T05:47:27.089Z,46.41
2023-05-10T05:49:55.165Z,46.55
2023-05-10T05:52:23.362Z,46.88
2023-05-10T05:54:51.360Z,45.86
2023-05-10T05:57:20.750Z,45.24
2023-05-10T05:59:49.382Z,45.13
2023-05-10T06:02:17.675Z,44.77
2023-05-10T06:04:45.640Z,44.41
2023-05-10T06:07:13.683Z,44.52
2023-05-10T06:09:41.739Z,44.48
2023-05-10T06:12:09.664Z,44.58
2023-05-10T06:14:39.013Z,43.36
2023-05-10T06:17:10.826Z,43.72
2023-05-10T06:19:38.938Z,43.08
2023-05-10T06:22:06.911Z,42.92
2023-05-10T06:24:34.956Z,42.08
2023-05-10T06:27:03.285Z,40.85
2023-05-10T06:29:31.253Z,41.47
2023-05-10T06:32:00.886Z,42.80
2023-05-10T06:34:29.064Z,42.69
2023-05-10T06:36:57.011Z,42.69
2023-05-10T06:39:25.171Z,42.84
2023-05-10T06:41:53.379Z,42.08
2023-05-10T06:44:21.263Z,43.69
2023-05-10T06:46:49.483Z,43.28
2023-05-10T06:49:19.170Z,42.37
2023-05-10T06:51:47.283Z,41.23
2023-05-10T06:54:15.447Z,41.19
2023-05-10T06:56:43.679Z,39.69
2023-05-10T06:59:11.753Z,41.07
2023-05-10T07:01:39.852Z,41.99
2023-05-10T07:04:08.815Z,41.63
2023-05-10T07:06:38.191Z,40.76
2023-05-10T07:09:06.281Z,37.94
2023-05-10T07:11:34.394Z,38.46
2023-05-10T07:14:02.381Z,37.66
2023-05-10T07:16:30.370Z,40.07
2023-05-10T07:18:58.384Z,39.75
2023-05-10T07:21:29.608Z,39.74
2023-05-10T07:23:59.358Z,38.79
2023-05-10T07:26:27.242Z,39.38
2023-05-10T07:28:55.186Z,39.32
2023-05-10T07:31:23.348Z,39.54
2023-05-10T07:33:51.357Z,37.80
2023-05-10T07:36:19.349Z,36.12
2023-05-10T07:38:47.481Z,35.73
2023-05-10T07:41:16.872Z,36.89
2023-05-10T07:43:44.896Z,35.27
2023-05-10T07:46:13.073Z,35.99
2023-05-10T07:48:41.124Z,36.06
2023-05-10T07:51:10.446Z,36.13
2023-05-10T07:53:39.399Z,35.59
2023-05-10T07:59:04.982Z,35.37
2023-05-10T08:01:33.746Z,34.95
2023-05-10T08:04:02.958Z,33.38
2023-05-10T08:06:31.483Z,34.96
2023-05-10T08:08:59.496Z,33.38
2023-05-10T08:11:28.732Z,34.48
2023-05-10T08:13:56.872Z,32.78
2023-05-10T08:16:26.160Z,33.42
2023-05-10T08:18:56.365Z,32.68
2023-05-10T08:21:24.667Z,30.74
2023-05-10T08:23:52.618Z,31.84
2023-05-10T08:26:22.020Z,30.28
2023-05-10T08:28:50.157Z,31.79
2023-05-10T08:31:19.070Z,29.83
2023-05-10T08:33:48.545Z,30.95
2023-05-10T08:36:20.854Z,30.19
2023-05-10T08:38:50.241Z,29.34
2023-05-10T08:41:19.352Z,30.65
2023-05-10T08:43:48.197Z,31.48
2023-05-10T08:46:19.413Z,31.18
2023-05-10T08:48:49.895Z,29.59
2023-05-10T08:51:20.894Z,29.90
2023-05-10T08:53:49.694Z,28.85
2023-05-10T08:56:18.919Z,27.67
2023-05-10T08:58:47.060Z,27.75
2023-05-10T09:01:17.292Z,28.21
2023-05-10T09:03:45.586Z,28.80
2023-05-10T09:06:15.305Z,29.74
2023-05-10T09:08:44.265Z,27.24
2023-05-10T09:11:13.221Z,26.85
2023-05-10T09:13:43.999Z,26.60
2023-05-10T09:16:21.325Z,27.92
2023-05-10T09:18:50.749Z,28.70
2023-05-10T09:21:21.684Z,28.19
2023-05-10T09:23:51.271Z,28.32
2023-05-10T09:26:19.419Z,27.62
2023-05-10T09:28:54.610Z,26.50
2023-05-10T09:31:22.857Z,28.43
2023-05-10T09:33:52.165Z,28.45
2023-05-10T09:36:21.777Z,26.26
2023-05-10T09:38:52.748Z,27.33
2023-05-10T09:41:22.273Z,26.08
2023-05-10T09:43:50.588Z,26.17
2023-05-10T09:46:18.900Z,27.39
2023-05-10T09:48:48.740Z,26.92
2023-05-10T09:51:25.370Z,27.87
2023-05-10T09:54:12.128Z,27.56
2023-05-10T09:56:41.666Z,28.23
2023-05-10T09:59:11.695Z,25.99
2023-05-10T10:01:40.268Z,25.92
2023-05-10T10:04:09.678Z,26.89
2023-05-10T10:06:40.066Z,28.60
2023-05-10T10:09:08.882Z,26.31
2023-05-10T10:11:38.358Z,27.71
2023-05-10T10:14:06.859Z,27.39
2023-05-10T10:16:39.948Z,27.90
2023-05-10T10:19:14.570Z,26.07
2023-05-10T10:21:44.137Z,26.48
2023-05-10T10:24:11.982Z,26.82
2023-05-10T10:26:42.673Z,27.05
2023-05-10T10:29:20.922Z,26.87
2023-05-10T10:31:56.778Z,25.97
2023-05-10T10:34:29.430Z,26.36
2023-05-10T10:36:59.993Z,26.35
2023-05-10T10:39:29.259Z,26.25
2023-05-10T10:41:58.553Z,25.32
2023-05-10T10:44:28.579Z,26.33
2023-05-10T10:47:07.035Z,26.61
2023-05-10T10:49:39.524Z,26.02
2023-05-10T10:52:23.928Z,25.72
2023-05-10T10:54:59.884Z,26.06
2023-05-10T10:57:28.840Z,26.25
2023-05-10T11:00:22.121Z,26.40
2023-05-10T11:02:54.828Z,26.33
2023-05-10T11:05:27.807Z,25.43
2023-05-10T11:07:58.342Z,26.49
2023-05-10T11:10:27.561Z,25.49
2023-05-10T11:13:01.983Z,26.51
2023-05-10T11:15:34.166Z,26.87
2023-05-10T11:18:18.262Z,26.14
2023-05-10T11:20:47.789Z,25.53
2023-05-10T11:23:18.945Z,25.05
2023-05-10T11:25:48.265Z,25.54
2023-05-10T11:28:16.891Z,25.31
2023-05-10T11:30:46.691Z,25.64
2023-05-10T11:33:19.225Z,25.37
2023-05-10T11:35:47.219Z,26.18
2023-05-10T11:38:16.494Z,24.51
2023-05-10T11:40:44.829Z,25.78
2023-05-10T11:43:13.429Z,26.03
2023-05-10T11:45:43.505Z,24.64
2023-05-10T11:48:11.866Z,25.59
2023-05-10T11:50:39.920Z,24.53
2023-05-10T11:53:07.954Z,24.95
2023-05-10T11:55:37.695Z,24.54
2023-05-10T11:58:06.046Z,25.80
2023-05-10T12:00:34.403Z,25.28
2023-05-10T12:03:04.284Z,24.73
2023-05-10T12:05:35.153Z,24.70
2023-05-10T12:08:16.812Z,25.07
2023-05-10T12:10:46.205Z,24.90
2023-05-10T12:13:16.179Z,25.94
2023-05-10T12:15:45.355Z,25.89
2023-05-10T12:18:14.652Z,26.48
2023-05-10T12:20:43.566Z,25.38
2023-05-10T12:23:12.295Z,25.78
2023-05-10T12:25:41.098Z,26.24
2023-05-10T12:28:11.703Z,25.79
2023-05-10T12:30:40.430Z,26.19
2023-05-10T12:33:14.370Z,27.02
2023-05-10T12:35:51.237Z,26.76
2023-05-10T12:38:27.992Z,26.14
2023-05-10T12:40:56.075Z,26.66
2023-05-10T12:43:25.540Z,27.14
2023-05-10T12:45:53.699Z,26.07
2023-05-10T12:48:22.012Z,26.38
2023-05-10T12:50:50.170Z,26.35
2023-05-10T12:53:18.934Z,27.00
2023-05-10T12:55:46.913Z,26.47
2023-05-10T12:58:31.510Z,27.10
2023-05-10T13:01:05.279Z,27.46
2023-05-10T13:03:33.515Z,26.63
2023-05-10T13:06:01.534Z,26.77
2023-05-10T13:08:34.331Z,26.78
2023-05-10T13:11:02.829Z,26.70
2023-05-10T13:13:30.839Z,26.72
2023-05-10T13:15:58.849Z,26.69
2023-05-10T13:18:28.507Z,27.27
2023-05-10T13:20:56.778Z,26.56
2023-05-10T13:23:24.844Z,26.27
2023-05-10T13:25:53.123Z,25.60
2023-05-10T13:28:21.123Z,26.73
2023-05-10T13:30:49.108Z,26.19
2023-05-10T13:33:17.166Z,25.71
2023-05-10T13:35:46.632Z,26.06
2023-05-10T13:38:14.938Z,26.23
2023-05-10T13:40:43.030Z,26.29
2023-05-10T13:43:11.215Z,26.15
2023-05-10T13:45:40.143Z,26.01
2023-05-10T13:48:08.285Z,25.91
2023-05-10T13:50:36.272Z,26.19
2023-05-10T13:53:06.530Z,26.83
2023-05-10T13:55:34.668Z,26.39
2023-05-10T13:58:02.646Z,26.35
2023-05-10T14:00:30.767Z,26.20
2023-05-10T14:02:58.931Z,27.10
2023-05-10T14:05:27.020Z,26.84
2023-05-10T14:07:55.306Z,26.67
2023-05-10T14:10:24.700Z,27.07
2023-05-10T14:12:52.826Z,26.90
2023-05-10T14:15:20.935Z,27.50
2023-05-10T14:17:48.984Z,27.37
2023-05-10T14:20:17.198Z,28.01
2023-05-10T14:22:45.196Z,27.67
2023-05-10T14:25:13.744Z,27.19
2023-05-10T14:27:43.125Z,27.63
2023-05-10T14:30:12.094Z,27.99
2023-05-10T14:32:40.337Z,27.42
2023-05-10T14:35:10.831Z,27.58
2023-05-10T14:37:40.954Z,27.92
2023-05-10T14:40:10.355Z,27.00
2023-05-10T14:42:38.373Z,27.90
2023-05-10T14:45:09.551Z,27.48
2023-05-10T14:47:37.505Z,27.66
2023-05-10T14:50:06.121Z,26.97
2023-05-10T14:52:34.542Z,27.33
2023-05-10T14:55:02.548Z,27.73
2023-05-10T14:57:30.796Z,27.01
2023-05-10T14:59:58.989Z,26.75
2023-05-10T15:02:28.659Z,26.89
2023-05-10T15:04:58.427Z,25.88
2023-05-10T15:07:27.105Z,26.18
2023-05-10T15:09:55.184Z,26.63
2023-05-10T15:12:23.077Z,26.44
2023-05-10T15:14:51.173Z,26.32
2023-05-10T15:17:19.160Z,25.65
2023-05-10T15:19:50.167Z,26.00
2023-05-10T15:22:18.376Z,25.94
2023-05-10T15:24:46.311Z,24.58
2023-05-10T15:27:14.381Z,25.61
2023-05-10T15:29:42.643Z,24.99
2023-05-10T15:32:10.585Z,25.11
2023-05-10T15:34:38.541Z,25.15
2023-05-10T15:37:08.144Z,23.79
2023-05-10T15:39:36.350Z,24.72
2023-05-10T15:42:04.962Z,24.84
2023-05-10T15:44:32.918Z,24.69
2023-05-10T15:47:00.936Z,25.70
2023-05-10T15:49:28.936Z,26.71
2023-05-10T15:51:56.969Z,25.89
2023-05-10T15:54:26.553Z,24.95
2023-05-10T15:56:55.281Z,25.33
2023-05-10T15:59:23.352Z,25.41
2023-05-10T16:01:52.008Z,25.62
2023-05-10T16:04:20.076Z,25.73
2023-05-10T16:06:48.161Z,25.64
2023-05-10T16:09:16.804Z,25.09
2023-05-10T16:11:46.397Z,26.32
2023-05-10T16:14:14.544Z,26.19
2023-05-10T16:16:43.305Z,26.52
2023-05-10T16:19:11.367Z,26.75
2023-05-10T16:21:39.439Z,26.33
2023-05-10T16:24:07.768Z,26.18
2023-05-10T16:26:40.989Z,26.65
2023-05-10T16:29:10.692Z,25.76
2023-05-10T16:31:38.612Z,25.84
2023-05-10T16:34:06.550Z,25.41
2023-05-10T16:36:35.308Z,24.93
2023-05-10T16:39:03.982Z,24.55
2023-05-10T16:41:35.185Z,24.58
2023-05-10T16:44:03.711Z,24.83
2023-05-10T16:46:33.255Z,24.64
2023-05-10T16:49:01.349Z,24.59
2023-05-10T16:51:29.528Z,25.34
2023-05-10T16:53:57.476Z,25.68
2023-05-10T16:56:27.521Z,25.25
2023-05-10T16:58:55.605Z,25.79
2023-05-10T17:01:26.278Z,25.59
2023-05-10T17:03:56.558Z,25.53
2023-05-10T17:06:24.585Z,25.22
2023-05-10T17:08:52.642Z,25.55
2023-05-10T17:11:21.966Z,25.17
2023-05-10T17:13:49.917Z,25.23
2023-05-10T17:16:17.968Z,25.09
2023-05-10T17:18:46.644Z,24.82
2023-05-10T17:21:16.455Z,24.47
2023-05-10T17:23:44.415Z,24.56
2023-05-10T17:26:13.076Z,24.29
2023-05-10T17:28:40.947Z,23.93
2023-05-10T17:31:08.981Z,23.55
2023-05-10T18:13:46.418Z,30.91
2023-05-10T18:16:14.583Z,31.68
2023-05-10T18:18:42.568Z,31.57
2023-05-10T18:21:11.187Z,31.04
2023-05-10T18:23:39.212Z,31.60
2023-05-10T18:26:08.731Z,31.86
2023-05-10T18:28:39.769Z,32.10
2023-05-10T18:31:12.631Z,31.92
2023-05-10T18:33:41.623Z,31.91
2023-05-10T18:36:09.696Z,31.66
2023-05-10T18:38:38.719Z,32.21
2023-05-10T18:41:07.449Z,32.73
2023-05-10T18:43:35.340Z,33.13
2023-05-10T18:46:03.343Z,33.40
2023-05-10T18:48:32.712Z,34.09
2023-05-10T18:51:00.892Z,34.47
2023-05-10T18:53:28.883Z,34.41
2023-05-10T18:55:58.249Z,35.08
2023-05-10T18:58:26.324Z,35.12
2023-05-10T19:00:55.966Z,35.09
2023-05-10T19:03:24.176Z,35.80
2023-05-10T19:05:53.469Z,35.44
2023-05-10T19:08:24.652Z,35.85
2023-05-10T19:10:52.689Z,36.24
2023-05-10T19:13:22.424Z,36.26
2023-05-10T19:16:03.022Z,37.05
2023-05-10T19:18:33.273Z,36.98
2023-05-10T19:21:04.792Z,37.73
2023-05-10T19:23:33.724Z,37.91
2023-05-10T19:26:04.665Z,38.08
2023-05-10T19:28:34.087Z,38.49
2023-05-10T19:31:05.045Z,38.95
2023-05-10T19:33:38.435Z,38.32
2023-05-10T19:36:09.185Z,38.53
2023-05-10T19:38:38.300Z,39.33
2023-05-10T19:41:06.795Z,39.17
2023-05-10T19:43:36.406Z,39.60
2023-05-10T19:46:04.660Z,40.04
2023-05-10T19:48:33.123Z,39.84
2023-05-10T19:51:02.429Z,39.44
2023-05-10T19:53:34.030Z,39.63
2023-05-10T19:56:06.699Z,40.70
2023-05-10T19:58:35.294Z,41.04
2023-05-10T20:01:03.920Z,41.41
2023-05-10T20:03:33.618Z,41.21
2023-05-10T20:06:05.384Z,41.35
2023-05-10T20:08:34.862Z,41.01
2023-05-10T20:11:03.958Z,41.07
2023-05-10T20:13:32.034Z,41.27
2023-05-10T20:16:00.719Z,42.17
2023-05-10T20:18:28.907Z,42.52
2023-05-10T20:20:59.491Z,42.05
2023-05-10T20:23:29.680Z,42.09
2023-05-10T20:25:59.891Z,42.76
2023-05-10T20:28:28.420Z,42.56
2023-05-10T20:30:58.511Z,43.39
2023-05-10T20:33:26.959Z,42.95
2023-05-10T20:35:57.869Z,43.48
2023-05-10T20:38:26.001Z,43.87
2023-05-10T20:40:54.309Z,43.78
2023-05-10T20:43:23.718Z,44.10
2023-05-10T20:45:51.777Z,45.25
2023-05-10T20:48:20.021Z,45.04
2023-05-10T20:50:47.959Z,45.64
2023-05-10T20:53:15.897Z,45.97
2023-05-10T20:55:44.132Z,46.01
2023-05-10T20:58:12.090Z,47.40
2023-05-10T21:00:43.807Z,49.17
2023-05-10T21:03:13.563Z,48.11
2023-05-10T21:05:47.392Z,49.09
2023-05-10T21:08:15.552Z,48.91
2023-05-10T21:10:46.389Z,49.32
2023-05-10T21:13:14.399Z,50.54
2023-05-10T21:15:43.894Z,50.23
2023-05-10T21:18:11.822Z,51.59
2023-05-10T21:20:39.849Z,51.98
2023-05-10T21:23:07.896Z,52.51
2023-05-10T21:25:39.179Z,54.13
2023-05-10T21:28:07.201Z,54.88
2023-05-10T21:30:35.757Z,54.47
2023-05-10T21:33:07.914Z,55.65
2023-05-10T21:35:35.954Z,56.08
2023-05-10T21:38:04.010Z,55.56
2023-05-10T21:40:31.920Z,56.12
2023-05-10T21:42:59.938Z,57.71
2023-05-10T21:45:31.673Z,56.94
2023-05-10T21:47:59.985Z,57.70
2023-05-10T21:50:30.060Z,56.33
2023-05-10T21:52:58.243Z,57.59
2023-05-10T21:55:26.352Z,57.77
2023-05-10T21:57:55.796Z,56.97
2023-05-10T22:00:24.003Z,57.08
2023-05-10T22:02:52.000Z,60.62
2023-05-10T22:05:20.064Z,58.23
2023-05-10T22:07:49.624Z,61.22
2023-05-10T22:10:17.863Z,60.92
2023-05-10T22:12:46.188Z,61.47
2023-05-10T22:15:14.289Z,62.26
2023-05-10T22:17:42.373Z,61.04
2023-05-10T22:20:11.165Z,61.82
2023-05-10T22:22:39.262Z,60.44
2023-05-10T22:25:09.443Z,58.84
2023-05-10T22:27:37.783Z,60.47
2023-05-10T22:30:07.017Z,61.25
2023-05-10T22:32:35.204Z,62.18
2023-05-10T22:35:03.368Z,62.56
2023-05-10T22:37:31.568Z,60.34
2023-05-10T22:40:05.058Z,59.27
2023-05-10T22:42:35.075Z,58.47
2023-05-10T22:45:03.154Z,60.64
2023-05-10T22:47:31.219Z,58.37
2023-05-10T22:49:59.437Z,57.73
2023-05-10T22:52:27.370Z,61.47
2023-05-10T22:54:55.706Z,59.60
2023-05-10T22:57:23.723Z,59.50
2023-05-10T22:59:53.747Z,61.46
2023-05-10T23:02:24.501Z,59.33
2023-05-10T23:04:52.536Z,61.42
2023-05-10T23:07:22.215Z,60.94
2023-05-10T23:09:50.236Z,62.99
2023-05-10T23:12:18.267Z,64.78
2023-05-10T23:14:49.397Z,66.06
2023-05-10T23:17:19.019Z,70.64
2023-05-10T23:19:47.228Z,71.29
2023-05-10T23:22:17.557Z,71.30
2023-05-10T23:24:45.644Z,72.09
2023-05-10T23:27:14.583Z,72.35
2023-05-10T23:29:45.205Z,65.13
2023-05-10T23:32:13.325Z,63.31
2023-05-10T23:34:42.790Z,65.24
2023-05-10T23:37:13.441Z,69.03
2023-05-10T23:39:41.595Z,67.09
2023-05-10T23:42:09.692Z,69.76
2023-05-10T23:44:37.589Z,67.57
2023-05-10T23:47:06.208Z,68.28
2023-05-10T23:49:34.522Z,67.08
2023-05-10T23:52:04.019Z,66.64
2023-05-10T23:54:32.208Z,69.71
2023-05-10T23:57:00.204Z,68.33
2023-05-10T23:59:31.316Z,67.14
